Time;durP1;ratioP1;P1;durP2;ratioP2;P2;SDS_P1;SDS_P2;PMS_P1;PMS_P2;Temp;Humidity;BMP_temperature;BMP_pressure;BME280_temperature;BME280_humidity;BME280_pressure;Samples;Min_cycle;Max_cycle;Signal;HPM_P1;HPM_P2
2021/07/30 00:04:16;;;;;;;20.85;13.00;;;;;;;17.25;80.62;98702.22;4026383;86;21591;-84
2021/07/30 00:10:18;;;;;;;21.52;11.10;;;;;;;17.05;80.85;98700.82;4063962;85;21094;-83
2021/07/30 00:16:20;;;;;;;15.85;9.98;;;;;;;16.96;81.13;98693.70;4030312;86;21566;-83
2021/07/30 00:22:21;;;;;;;16.80;10.95;;;;;;;16.90;81.80;98695.40;3948961;88;21108;-83
2021/07/30 00:28:22;;;;;;;16.23;9.58;;;;;;;16.95;81.71;98689.98;3955716;88;21094;-83
2021/07/30 00:34:24;;;;;;;13.70;8.83;;;;;;;16.96;82.29;98692.31;3935419;87;21558;-83
2021/07/30 00:40:25;;;;;;;14.93;9.58;;;;;;;17.01;82.30;98686.89;4092972;85;21097;-83
2021/07/30 00:46:27;;;;;;;19.10;8.88;;;;;;;16.89;82.19;98690.29;4098854;85;21616;-83
2021/07/30 00:52:29;;;;;;;17.98;9.23;;;;;;;16.79;82.42;98689.28;4091507;85;21027;-83
2021/07/30 00:58:30;;;;;;;14.60;9.28;;;;;;;16.76;82.65;98694.88;4096167;85;21564;-83
2021/07/30 01:04:32;;;;;;;17.10;9.35;;;;;;;16.65;82.76;98693.69;4086918;85;21102;-83
2021/07/30 01:10:33;;;;;;;10.80;8.10;;;;;;;16.59;82.97;98696.77;4090390;85;21515;-84
2021/07/30 01:16:35;;;;;;;16.23;8.03;;;;;;;16.53;83.29;98687.41;4094435;85;21674;-83
2021/07/30 01:23:00;;;;;;;16.40;8.25;;;;;;;16.56;83.69;98691.30;4096556;85;21659;-83
2021/07/30 01:29:02;;;;;;;12.03;8.90;;;;;;;16.59;83.76;98691.23;4087824;85;21539;-83
2021/07/30 01:35:04;;;;;;;13.58;8.40;;;;;;;16.66;84.09;98690.34;4088327;85;21080;-83
2021/07/30 01:41:11;;;;;;;10.50;7.37;;;;;;;16.57;84.03;98681.82;4094757;85;21113;-83
2021/07/30 01:47:13;;;;;;;13.58;7.10;;;;;;;16.67;84.60;98683.00;4088743;85;21019;-82
2021/07/30 01:53:15;;;;;;;21.25;8.38;;;;;;;16.63;84.51;98685.03;4093388;85;21004;-83
2021/07/30 01:59:16;;;;;;;13.30;8.38;;;;;;;16.56;84.40;98674.13;4089596;85;21038;-83
2021/07/30 02:05:17;;;;;;;12.68;7.90;;;;;;;16.46;84.79;98677.84;4098830;85;21509;-82
2021/07/30 02:11:19;;;;;;;11.55;7.65;;;;;;;16.46;85.13;98675.70;4093857;85;21116;-82
2021/07/30 02:17:21;;;;;;;13.60;7.97;;;;;;;16.52;85.60;98674.02;4091377;85;21096;-83
2021/07/30 02:23:22;;;;;;;15.45;7.20;;;;;;;16.51;85.40;98669.08;4100572;85;21025;-82
2021/07/30 02:29:24;;;;;;;15.30;7.75;;;;;;;16.44;85.39;98672.54;4077520;85;21118;-82
2021/07/30 02:35:25;;;;;;;14.65;7.15;;;;;;;16.40;85.63;98666.28;4094518;85;21118;-83
2021/07/30 02:41:27;;;;;;;12.37;7.40;;;;;;;16.32;85.83;98668.39;4090219;85;21086;-83
2021/07/30 02:47:28;;;;;;;14.83;8.18;;;;;;;16.23;85.96;98663.22;4101520;85;21035;-83
2021/07/30 02:53:30;;;;;;;14.15;8.30;;;;;;;16.08;86.26;98663.28;4099938;85;21067;-82
2021/07/30 02:59:33;;;;;;;15.23;8.10;;;;;;;16.19;86.92;98661.92;4085519;85;21059;-82
2021/07/30 03:05:34;;;;;;;14.40;7.75;;;;;;;16.15;86.46;98663.16;4095142;85;21032;-82
2021/07/30 03:11:36;;;;;;;17.17;9.15;;;;;;;16.09;86.39;98660.69;4099789;85;21079;-83
2021/07/30 03:17:37;;;;;;;12.80;8.40;;;;;;;16.06;86.69;98667.84;4083186;85;21118;-84
2021/07/30 03:23:38;;;;;;;16.23;8.83;;;;;;;16.14;87.03;98666.53;4099690;85;21059;-82
2021/07/30 03:29:40;;;;;;;11.97;7.70;;;;;;;16.15;87.58;98666.70;4086672;85;21667;-83
2021/07/30 03:35:42;;;;;;;13.93;7.40;;;;;;;16.14;87.11;98667.91;4105044;85;21463;-83
2021/07/30 03:41:43;;;;;;;14.20;8.90;;;;;;;16.09;87.19;98662.86;4097180;85;21050;-83
2021/07/30 03:47:51;;;;;;;9.95;7.37;;;;;;;16.08;87.46;98670.19;4078904;85;21582;-82
2021/07/30 03:53:52;;;;;;;12.30;7.53;;;;;;;16.10;87.46;98667.17;4090669;85;21091;-82
2021/07/30 03:59:54;;;;;;;13.13;7.37;;;;;;;16.06;87.74;98670.61;4093340;85;21039;-82
2021/07/30 04:05:56;;;;;;;11.33;7.05;;;;;;;16.22;88.08;98674.09;4085004;85;21556;-82
2021/07/30 04:11:59;;;;;;;15.08;7.50;;;;;;;16.31;87.94;98670.98;4118527;85;24904;-82
2021/07/30 04:18:01;;;;;;;11.93;7.17;;;;;;;16.45;88.38;98674.13;4121904;85;21043;-85
2021/07/30 04:24:02;;;;;;;9.90;6.45;;;;;;;16.46;88.23;98671.55;4130442;85;21073;-83
2021/07/30 04:30:06;;;;;;;17.45;7.50;;;;;;;16.58;88.59;98675.08;4123541;85;21075;-83
2021/07/30 04:36:16;;;;;;;15.70;8.28;;;;;;;16.81;88.53;98681.95;4124978;85;21898;-84
2021/07/30 04:42:18;;;;;;;18.57;8.08;;;;;;;16.98;88.54;98676.68;4125394;85;21679;-83
2021/07/30 04:48:19;;;;;;;13.58;8.28;;;;;;;17.14;88.31;98684.47;4113834;85;21638;-84
2021/07/30 04:54:20;;;;;;;15.65;9.55;;;;;;;17.25;88.27;98680.09;4124809;85;21000;-83
2021/07/30 05:00:22;;;;;;;18.25;10.53;;;;;;;17.38;88.18;98677.45;4119944;85;21032;-83
2021/07/30 05:06:23;;;;;;;18.82;9.13;;;;;;;17.36;88.17;98675.12;4128504;84;21109;-83
2021/07/30 05:12:24;;;;;;;16.37;10.15;;;;;;;17.42;88.52;98671.23;4130823;85;21583;-83
2021/07/30 05:18:25;;;;;;;18.85;10.43;;;;;;;17.59;88.71;98675.63;4045113;85;21490;-82
2021/07/30 05:24:27;;;;;;;17.25;10.95;;;;;;;17.72;88.75;98673.17;4049041;86;21165;-83
2021/07/30 05:30:28;;;;;;;16.80;8.53;;;;;;;17.95;88.73;98669.47;4055322;86;21048;-83
2021/07/30 05:36:29;;;;;;;10.63;7.60;;;;;;;18.21;88.63;98671.98;4055385;86;21698;-83
2021/07/30 05:42:30;;;;;;;12.25;6.97;;;;;;;18.57;88.20;98664.36;4044318;86;21080;-83
2021/07/30 05:48:32;;;;;;;7.58;5.90;;;;;;;18.80;87.33;98666.75;4017716;87;21114;-82
2021/07/30 05:54:33;;;;;;;10.40;6.87;;;;;;;18.98;86.93;98667.81;4007099;87;21581;-83
2021/07/30 06:00:34;;;;;;;15.93;7.67;;;;;;;19.17;86.51;98684.16;3983248;87;21663;-84
2021/07/30 06:06:35;;;;;;;16.27;9.58;;;;;;;19.34;86.36;98684.29;4123843;84;21023;-82
2021/07/30 06:12:36;;;;;;;19.05;7.80;;;;;;;19.45;86.44;98689.68;4134460;85;21050;-82
2021/07/30 06:18:38;;;;;;;13.53;6.67;;;;;;;19.60;86.63;98684.50;4124428;84;21377;-83
2021/07/30 06:24:40;;;;;;;11.30;6.47;;;;;;;19.81;86.04;98694.98;4092534;85;21015;-83
2021/07/30 06:30:41;;;;;;;10.35;5.97;;;;;;;19.95;85.25;98701.48;4120348;84;21543;-83
2021/07/30 06:36:42;;;;;;;9.68;5.40;;;;;;;20.16;85.01;98696.05;4126321;85;21036;-84
2021/07/30 06:42:44;;;;;;;10.43;5.40;;;;;;;20.43;84.37;98695.58;4130275;85;21032;-84
2021/07/30 06:48:45;;;;;;;9.33;6.35;;;;;;;20.65;83.28;98684.51;4109534;85;21063;-84
2021/07/30 06:54:46;;;;;;;7.03;5.97;;;;;;;20.80;82.37;98690.52;4119478;85;21417;-84
2021/07/30 07:00:48;;;;;;;11.03;6.17;;;;;;;21.00;82.08;98683.31;4114121;85;21046;-83
2021/07/30 07:06:57;;;;;;;10.48;6.60;;;;;;;21.41;81.73;98684.36;4119246;84;21077;-85
2021/07/30 07:13:01;;;;;;;8.03;5.80;;;;;;;21.69;80.71;98678.50;4120477;85;21047;-83
2021/07/30 07:19:09;;;;;;;15.48;6.10;;;;;;;21.87;80.10;98676.45;4124429;85;21566;-84
2021/07/30 07:25:11;;;;;;;11.40;6.37;;;;;;;22.10;79.45;98675.17;4124751;85;21051;-84
2021/07/30 07:31:12;;;;;;;10.30;5.95;;;;;;;22.47;79.30;98679.59;4135078;85;21072;-85
2021/07/30 07:37:16;;;;;;;7.83;6.05;;;;;;;22.92;78.67;98670.69;4118917;85;21016;-85
2021/07/30 07:43:17;;;;;;;9.13;5.28;;;;;;;23.48;77.64;98661.02;4111881;85;21058;-85
2021/07/30 07:49:19;;;;;;;7.78;5.60;;;;;;;23.97;76.53;98665.10;4124866;85;21462;-85
2021/07/30 07:55:20;;;;;;;8.25;5.15;;;;;;;24.63;75.74;98661.63;4119398;85;21556;-86
2021/07/30 08:01:21;;;;;;;10.58;4.72;;;;;;;25.19;74.09;98657.92;4123657;85;21058;-85
2021/07/30 08:07:22;;;;;;;8.85;5.30;;;;;;;25.59;72.31;98658.19;4124633;85;21062;-85
2021/07/30 08:13:25;;;;;;;7.85;4.97;;;;;;;25.82;71.08;98648.88;4115119;85;21559;-85
2021/07/30 08:19:26;;;;;;;6.62;5.50;;;;;;;25.78;70.62;98644.08;4138721;85;21579;-84
2021/07/30 08:25:28;;;;;;;8.70;6.05;;;;;;;25.87;69.27;98642.59;4127236;85;21555;-85
2021/07/30 08:31:29;;;;;;;5.70;5.03;;;;;;;25.86;68.78;98641.03;4114945;85;21898;-84
2021/07/30 08:37:30;;;;;;;6.50;4.50;;;;;;;26.00;67.95;98645.87;4131116;85;21040;-85
2021/07/30 08:43:33;;;;;;;7.78;5.10;;;;;;;26.02;66.56;98643.36;4121701;84;21575;-85
2021/07/30 08:49:35;;;;;;;7.65;5.22;;;;;;;26.02;66.13;98637.13;4117136;85;21753;-85
2021/07/30 08:55:36;;;;;;;5.28;4.37;;;;;;;25.91;65.63;98638.33;4125495;85;21064;-84
2021/07/30 09:01:37;;;;;;;7.20;4.40;;;;;;;25.82;64.98;98630.03;4113128;85;21063;-85
2021/07/30 09:07:40;;;;;;;6.60;4.53;;;;;;;25.73;64.67;98629.37;4118571;85;21020;-85
2021/07/30 09:13:41;;;;;;;6.83;5.22;;;;;;;26.02;65.28;98625.91;4101558;85;21103;-84
2021/07/30 09:20:02;;;;;;;6.78;4.67;;;;;;;26.20;64.36;98623.49;4134774;85;21051;-86
2021/07/30 09:26:03;;;;;;;6.58;4.85;;;;;;;26.42;62.63;98614.59;4120349;85;21099;-84
2021/07/30 09:32:11;;;;;;;6.42;4.83;;;;;;;26.63;63.58;98604.90;4137227;84;21033;-85
2021/07/30 09:38:16;;;;;;;6.72;4.22;;;;;;;27.03;62.91;98592.25;4112536;84;21075;-85
2021/07/30 09:44:18;;;;;;;6.20;4.27;;;;;;;27.58;62.39;98589.96;4118439;85;21571;-84
2021/07/30 09:50:20;;;;;;;5.83;5.00;;;;;;;28.05;59.99;98572.42;4121998;85;21071;-84
2021/07/30 09:56:27;;;;;;;5.83;4.40;;;;;;;28.54;59.97;98569.75;4120752;85;21066;-86
2021/07/30 10:02:31;;;;;;;7.05;4.53;;;;;;;28.96;59.54;98561.95;4134400;85;21028;-86
2021/07/30 10:08:33;;;;;;;6.20;3.80;;;;;;;29.63;55.79;98554.98;4127053;84;21078;-85
2021/07/30 10:14:35;;;;;;;6.30;4.20;;;;;;;30.10;57.26;98552.50;4120327;85;21055;-85
2021/07/30 10:20:42;;;;;;;6.03;4.20;;;;;;;30.43;56.47;98545.33;4121014;85;21725;-85
2021/07/30 10:26:44;;;;;;;6.85;4.83;;;;;;;30.48;54.84;98540.30;4121764;85;21551;-85
2021/07/30 10:32:58;;;;;;;5.92;4.00;;;;;;;30.54;53.86;98531.16;4123227;85;21146;-85
2021/07/30 10:39:11;;;;;;;4.75;4.17;;;;;;;30.46;52.40;98531.61;4124789;85;21553;-85
2021/07/30 10:45:17;;;;;;;5.50;4.10;;;;;;;30.63;53.26;98520.99;4127245;85;21408;-85
2021/07/30 10:51:29;;;;;;;4.92;4.17;;;;;;;30.75;52.60;98521.04;4119215;85;21127;-85
2021/07/30 10:57:51;;;;;;;7.45;3.75;;;;;;;31.02;51.71;98510.23;4128394;84;21167;-85
2021/07/30 11:04:00;;;;;;;7.28;4.08;;;;;;;31.20;50.21;98499.68;4103318;85;21070;-85
2021/07/30 11:10:13;;;;;;;5.15;3.52;;;;;;;31.42;49.38;98491.67;4051923;85;21083;-85
2021/07/30 11:16:14;;;;;;;4.12;3.72;;;;;;;31.89;48.70;98482.48;4016541;86;21644;-85
2021/07/30 11:22:20;;;;;;;5.22;3.40;;;;;;;32.36;47.90;98477.31;3947997;87;22229;-86
2021/07/30 11:28:23;;;;;;;4.22;3.00;;;;;;;32.51;47.69;98478.28;4004068;86;21124;-85
2021/07/30 11:34:30;;;;;;;4.03;3.40;;;;;;;32.98;46.84;98472.33;4004294;87;21074;-85
2021/07/30 11:40:34;;;;;;;3.35;3.05;;;;;;;33.23;46.23;98465.22;4002566;87;21546;-85
2021/07/30 11:46:35;;;;;;;3.25;2.95;;;;;;;33.32;44.54;98473.30;3996782;87;21055;-85
2021/07/30 11:52:39;;;;;;;4.45;3.20;;;;;;;33.02;44.62;98467.88;4008620;87;22276;-85
2021/07/30 11:58:59;;;;;;;4.07;3.33;;;;;;;32.78;44.67;98455.87;3990257;86;21098;-86
2021/07/30 12:05:00;;;;;;;3.40;3.10;;;;;;;32.23;42.99;98461.61;3983496;86;21580;-85
2021/07/30 12:11:02;;;;;;;3.90;3.50;;;;;;;31.98;43.99;98461.56;4004981;87;21019;-85
2021/07/30 12:17:06;;;;;;;3.47;3.17;;;;;;;31.28;44.12;98462.47;4008632;87;21062;-84
2021/07/30 12:23:11;;;;;;;4.05;3.20;;;;;;;30.94;44.21;98454.16;3983730;87;21084;-86
2021/07/30 12:29:41;;;;;;;5.17;3.42;;;;;;;30.55;44.57;98452.96;4038254;85;44404;-85
2021/07/30 12:35:42;;;;;;;8.13;3.90;;;;;;;30.23;44.59;98447.64;4170443;83;21047;-85
2021/07/30 12:41:51;;;;;;;4.62;3.95;;;;;;;29.75;44.78;98439.46;4172012;83;21514;-83
2021/07/30 12:48:00;;;;;;;5.10;3.87;;;;;;;29.40;45.15;98430.79;4176573;83;21026;-84
2021/07/30 12:54:10;;;;;;;7.40;4.53;;;;;;;29.20;45.32;98421.99;4177692;83;21091;-84
2021/07/30 13:00:13;;;;;;;5.80;4.08;;;;;;;29.17;46.07;98427.25;4172743;83;21098;-84
2021/07/30 13:06:22;;;;;;;6.40;4.12;;;;;;;28.92;45.70;98413.53;4170958;83;21599;-84
2021/07/30 13:12:25;;;;;;;7.28;3.75;;;;;;;28.80;46.51;98407.00;4176565;83;21365;-84
2021/07/30 13:18:26;;;;;;;5.28;4.12;;;;;;;28.69;47.20;98399.30;4092809;85;21568;-84
2021/07/30 13:24:28;;;;;;;7.80;4.70;;;;;;;28.61;47.68;98391.22;4113743;84;21535;-84
2021/07/30 13:30:30;;;;;;;6.37;4.50;;;;;;;28.50;47.50;98394.69;4184450;83;22185;-84
2021/07/30 13:36:32;;;;;;;4.75;4.20;;;;;;;28.38;47.77;98391.67;4176718;83;21543;-86
2021/07/30 13:42:34;;;;;;;7.62;4.42;;;;;;;28.33;48.01;98374.16;4175870;83;21051;-85
2021/07/30 13:48:36;;;;;;;6.70;4.55;;;;;;;28.24;48.52;98382.19;4173496;83;21074;-83
2021/07/30 13:54:39;;;;;;;6.20;4.03;;;;;;;28.17;48.23;98379.11;4176148;83;21034;-83
2021/07/30 14:00:40;;;;;;;5.72;4.03;;;;;;;28.13;48.48;98365.94;4178629;83;21003;-84
2021/07/30 14:06:41;;;;;;;6.30;3.80;;;;;;;28.09;49.21;98363.36;4174016;83;21603;-84
2021/07/30 14:12:43;;;;;;;4.80;4.30;;;;;;;28.09;49.02;98350.70;4169346;83;21019;-83
2021/07/30 14:18:48;;;;;;;7.75;4.35;;;;;;;28.10;49.55;98350.05;4170693;83;21778;-85
2021/07/30 14:24:50;;;;;;;7.50;4.17;;;;;;;28.05;49.58;98345.95;4169304;83;21078;-85
2021/07/30 14:30:54;;;;;;;5.85;4.78;;;;;;;27.91;49.29;98350.41;4175022;83;20995;-84
2021/07/30 14:36:55;;;;;;;7.45;4.37;;;;;;;27.77;50.41;98345.06;4178181;83;21579;-84
2021/07/30 14:42:58;;;;;;;5.80;4.28;;;;;;;27.82;50.62;98342.92;4177138;83;21503;-85
2021/07/30 14:49:01;;;;;;;4.45;4.05;;;;;;;28.00;50.40;98333.29;4189991;82;21086;-84
2021/07/30 14:55:02;;;;;;;7.60;4.58;;;;;;;28.07;51.05;98330.73;4183321;83;21627;-84
2021/07/30 15:01:05;;;;;;;7.22;3.70;;;;;;;27.92;52.16;98323.17;4173630;83;21020;-84
2021/07/30 15:07:07;;;;;;;4.60;3.30;;;;;;;27.83;50.96;98319.80;4185694;83;21102;-84
2021/07/30 15:13:08;;;;;;;3.92;3.40;;;;;;;27.77;50.83;98319.02;4181013;83;20999;-83
2021/07/30 15:19:13;;;;;;;7.75;3.25;;;;;;;27.71;50.68;98308.36;4175456;83;21047;-83
2021/07/30 15:25:15;;;;;;;5.78;3.33;;;;;;;27.67;50.25;98312.84;4175096;82;38017;-83
2021/07/30 15:31:18;;;;;;;4.10;3.17;;;;;;;27.49;50.10;98304.84;4177305;83;21114;-83
2021/07/30 15:37:22;;;;;;;9.35;3.35;;;;;;;27.39;50.28;98304.28;4164388;83;21051;-83
2021/07/30 15:43:23;;;;;;;5.87;3.60;;;;;;;27.34;49.92;98298.66;4168444;82;21577;-83
2021/07/30 15:49:26;;;;;;;5.08;3.05;;;;;;;27.24;49.71;98302.28;4165925;83;21035;-83
2021/07/30 15:55:28;;;;;;;6.22;3.55;;;;;;;27.17;49.65;98303.39;4167209;83;21062;-84
2021/07/30 16:01:29;;;;;;;4.58;3.40;;;;;;;27.08;49.42;98295.16;4168193;83;21066;-83
2021/07/30 16:07:31;;;;;;;4.60;3.50;;;;;;;27.08;48.92;98292.34;4173305;83;21027;-83
2021/07/30 16:13:33;;;;;;;7.17;3.90;;;;;;;27.01;49.42;98294.23;4163226;83;20965;-84
2021/07/30 16:19:36;;;;;;;8.78;3.80;;;;;;;26.91;49.32;98283.83;4167061;83;21657;-84
2021/07/30 16:25:37;;;;;;;7.00;3.83;;;;;;;26.94;49.24;98292.66;4171859;83;21050;-83
2021/07/30 16:31:38;;;;;;;4.37;3.50;;;;;;;26.88;49.45;98291.08;4184034;82;21078;-83
2021/07/30 16:37:41;;;;;;;6.25;3.72;;;;;;;26.72;50.05;98287.55;4169843;83;21066;-83
2021/07/30 16:43:45;;;;;;;5.47;3.70;;;;;;;26.62;50.26;98292.55;4067212;83;9999588;-85
2021/07/30 16:49:48;;;;;;;4.47;3.70;;;;;;;26.47;50.42;98287.70;4170711;83;21138;-84
2021/07/30 16:55:50;;;;;;;7.25;3.72;;;;;;;26.41;50.68;98286.89;4169197;83;21039;-83
2021/07/30 17:01:52;;;;;;;5.55;4.28;;;;;;;26.36;50.78;98283.41;4165320;83;21034;-84
2021/07/30 17:07:55;;;;;;;6.25;4.30;;;;;;;26.31;51.35;98290.38;4155697;83;21416;-84
2021/07/30 17:13:56;;;;;;;5.80;4.58;;;;;;;26.28;51.67;98287.17;4162111;83;22200;-84
2021/07/30 17:19:59;;;;;;;9.45;4.00;;;;;;;26.21;51.82;98282.78;4171147;83;21087;-83
2021/07/30 17:26:00;;;;;;;8.53;4.37;;;;;;;26.21;51.82;98282.78;4169105;83;21521;-84
2021/07/30 17:32:02;;;;;;;8.60;5.05;;;;;;;26.14;51.97;98287.41;4174308;83;21078;-84
2021/07/30 17:38:04;;;;;;;4.97;4.00;;;;;;;25.82;51.88;98261.98;4181257;83;21055;-83
2021/07/30 17:44:06;;;;;;;9.30;4.30;;;;;;;25.82;51.88;98261.98;4054567;83;10000474;-83
2021/07/30 17:50:09;;;;;;;7.85;5.05;;;;;;;25.79;52.34;98284.74;4164224;83;21066;-84
2021/07/30 17:56:11;;;;;;;10.05;4.85;;;;;;;25.69;52.53;98288.20;4175507;82;22293;-84
2021/07/30 18:02:14;;;;;;;16.57;6.22;;;;;;;25.60;53.00;98293.97;4166482;83;21550;-85
2021/07/30 18:08:15;;;;;;;9.45;5.95;;;;;;;25.48;53.23;98294.46;4118420;83;21595;-83
2021/07/30 18:14:19;;;;;;;10.80;5.28;;;;;;;25.34;53.88;98302.31;4166122;83;21372;-84
2021/07/30 18:20:21;;;;;;;11.08;6.67;;;;;;;25.18;55.04;98301.45;4157545;83;21047;-84
2021/07/30 18:26:22;;;;;;;12.43;6.75;;;;;;;25.01;56.05;98304.64;4175563;83;21503;-83
2021/07/30 18:32:23;;;;;;;11.22;7.00;;;;;;;24.82;56.89;98315.97;4166685;83;21649;-85
2021/07/30 18:38:24;;;;;;;11.35;7.12;;;;;;;24.66;57.79;98316.48;4167969;83;21503;-85
2021/07/30 18:44:26;;;;;;;9.70;6.60;;;;;;;24.46;58.30;98318.53;4191571;83;21579;-84
2021/07/30 18:50:27;;;;;;;9.50;6.50;;;;;;;24.24;58.72;98314.61;4159047;83;21043;-84
2021/07/30 18:56:30;;;;;;;8.63;5.53;;;;;;;24.07;59.42;98321.94;4167064;83;21067;-84
2021/07/30 19:02:31;;;;;;;9.55;6.75;;;;;;;23.87;59.96;98313.38;4172946;83;21416;-85
2021/07/30 19:08:34;;;;;;;8.18;7.12;;;;;;;23.78;60.18;98319.84;4171062;83;21003;-84
2021/07/30 19:14:35;;;;;;;11.83;7.33;;;;;;;23.69;60.47;98319.14;4195594;83;21017;-84
2021/07/30 19:20:36;;;;;;;8.70;6.17;;;;;;;23.52;61.00;98326.42;4165072;83;21104;-83
2021/07/30 19:26:40;;;;;;;9.70;5.90;;;;;;;23.34;61.88;98328.72;4178474;83;20971;-85
2021/07/30 19:32:41;;;;;;;7.62;5.55;;;;;;;23.10;62.79;98332.87;4168378;83;20980;-83
2021/07/30 19:38:42;;;;;;;8.10;5.90;;;;;;;22.91;63.56;98332.06;4172433;83;21011;-84
2021/07/30 19:44:44;;;;;;;9.35;5.85;;;;;;;22.74;64.42;98335.09;4181800;83;21531;-83
2021/07/30 19:50:45;;;;;;;9.45;7.05;;;;;;;22.57;65.17;98329.72;4166438;83;21531;-84
2021/07/30 19:56:47;;;;;;;9.95;6.45;;;;;;;22.39;65.54;98326.97;4164276;83;21603;-83
2021/07/30 20:02:48;;;;;;;12.18;6.08;;;;;;;22.22;66.43;98329.97;4175957;83;21051;-84
2021/07/30 20:08:49;;;;;;;9.28;6.83;;;;;;;21.99;67.22;98329.25;4173598;83;21485;-82
2021/07/30 20:14:51;;;;;;;12.05;7.28;;;;;;;22.01;67.72;98326.75;4164620;83;21026;-83
2021/07/30 20:20:52;;;;;;;11.88;7.55;;;;;;;21.97;68.41;98322.75;4168688;83;21082;-83
2021/07/30 20:26:53;;;;;;;13.55;8.38;;;;;;;21.91;68.96;98321.80;4163163;83;22216;-82
2021/07/30 20:32:54;;;;;;;12.95;8.55;;;;;;;21.81;69.32;98320.28;4169202;83;21090;-82
2021/07/30 20:38:55;;;;;;;12.68;7.72;;;;;;;21.71;69.71;98311.73;4170723;83;21380;-83
2021/07/30 20:44:57;;;;;;;14.50;7.47;;;;;;;21.63;70.38;98312.67;4163779;83;21043;-83
2021/07/30 20:50:58;;;;;;;10.88;6.75;;;;;;;21.51;70.81;98304.48;4164474;83;21111;-82
2021/07/30 20:56:59;;;;;;;12.75;7.95;;;;;;;21.39;71.53;98308.95;4165524;83;21027;-83
2021/07/30 21:03:06;;;;;;;13.62;8.45;;;;;;;21.28;71.90;98307.23;4179714;83;21651;-83
2021/07/30 21:09:08;;;;;;;;;;;;;;;21.16;72.09;98310.95;4180092;83;21070;-83
2021/07/30 21:15:10;;;;;;;14.35;9.55;;;;;;;20.93;73.73;98303.75;4164782;83;20175;-83
2021/07/30 21:21:16;;;;;;;16.25;10.45;;;;;;;20.75;73.10;98305.86;4161257;83;21038;-83
2021/07/30 21:27:17;;;;;;;15.43;9.35;;;;;;;20.64;73.43;98300.59;4170099;83;21039;-83
2021/07/30 21:33:21;;;;;;;16.65;9.23;;;;;;;20.48;73.98;98296.66;4165422;83;21045;-83
2021/07/30 21:39:28;;;;;;;12.03;8.18;;;;;;;20.35;74.57;98295.98;4168419;83;21105;-84
2021/07/30 21:45:36;;;;;;;20.23;9.55;;;;;;;20.22;74.80;98291.15;4164708;83;21047;-83
2021/07/30 21:51:37;;;;;;;17.37;9.45;;;;;;;20.13;75.43;98287.66;4166958;83;21079;-83
2021/07/30 21:57:39;;;;;;;19.23;9.65;;;;;;;20.01;75.81;98286.51;4169553;82;22161;-83
2021/07/30 22:03:40;;;;;;;16.35;9.40;;;;;;;19.91;76.21;98298.81;4168252;83;21595;-83
2021/07/30 22:09:41;;;;;;;13.80;9.50;;;;;;;19.83;76.64;98296.73;4172028;82;21678;-83
2021/07/30 22:15:43;;;;;;;16.02;8.58;;;;;;;19.82;76.89;98297.98;4167404;82;21348;-83
2021/07/30 22:21:44;;;;;;;14.55;8.98;;;;;;;19.65;77.22;98289.69;4171289;83;20981;-83
2021/07/30 22:27:45;;;;;;;11.73;8.03;;;;;;;19.53;77.53;98307.19;4164534;83;21436;-83
2021/07/30 22:33:47;;;;;;;14.93;9.53;;;;;;;19.45;78.05;98298.94;4162168;83;21007;-83
2021/07/30 22:39:51;;;;;;;17.12;7.70;;;;;;;19.39;78.31;98302.10;4176670;83;21048;-83
2021/07/30 22:45:51;;;;;;;14.13;8.63;;;;;;;19.37;78.79;98299.02;4166129;83;21110;-82
2021/07/30 22:51:53;;;;;;;12.25;8.03;;;;;;;19.21;78.98;98305.48;4172144;83;21061;-83
2021/07/30 22:57:55;;;;;;;21.37;9.75;;;;;;;19.10;79.23;98307.06;4161684;83;21023;-82
2021/07/30 23:03:56;;;;;;;13.68;8.73;;;;;;;18.94;79.54;98306.59;4172138;83;21032;-83
2021/07/30 23:09:57;;;;;;;16.50;9.70;;;;;;;18.91;80.12;98316.41;4162989;83;21047;-82
2021/07/30 23:15:58;;;;;;;11.50;8.83;;;;;;;18.91;80.33;98322.75;4167327;83;21539;-83
2021/07/30 23:22:00;;;;;;;15.50;8.33;;;;;;;18.98;80.69;98323.13;4164508;82;22007;-83
2021/07/30 23:28:01;;;;;;;14.25;7.95;;;;;;;18.88;80.70;98313.94;4161296;83;20991;-83
2021/07/30 23:34:02;;;;;;;12.58;8.83;;;;;;;18.73;80.94;98314.21;4162856;83;21066;-83
2021/07/30 23:40:04;;;;;;;12.50;8.65;;;;;;;18.61;81.02;98313.62;4158509;83;21011;-83
2021/07/30 23:46:07;;;;;;;11.35;8.53;;;;;;;18.50;81.42;98318.72;4163627;83;21078;-84
2021/07/30 23:52:08;;;;;;;16.07;8.93;;;;;;;18.42;81.87;98321.54;4159699;83;21059;-82
2021/07/30 23:58:09;;;;;;;11.68;7.08;;;;;;;18.46;82.56;98317.44;4165373;83;21038;-82
